createdAt,value
2023-05-09T00:01:31.710Z,101358.84
2023-05-09T00:03:59.972Z,101353.47
2023-05-09T00:06:27.909Z,101366.09
2023-05-09T00:08:55.866Z,101352.59
2023-05-09T00:11:23.191Z,101368.81
2023-05-09T00:13:51.328Z,101365.09
2023-05-09T00:16:20.740Z,101354.47
2023-05-09T00:18:48.174Z,101350.06
2023-05-09T00:21:15.661Z,101349.06
2023-05-09T00:23:42.940Z,101350.06
2023-05-09T00:26:10.703Z,101348.06
2023-05-09T00:28:40.325Z,101353.63
2023-05-09T00:31:07.536Z,101351.75
2023-05-09T00:33:34.804Z,101350.91
2023-05-09T00:36:02.133Z,101349.22
2023-05-09T00:38:29.451Z,101353.78
2023-05-09T00:40:56.750Z,101354.63
2023-05-09T00:43:24.060Z,101348.38
2023-05-09T00:45:51.727Z,101350.06
2023-05-09T00:48:18.978Z,101344.66
2023-05-09T00:50:47.213Z,101348.38
2023-05-09T00:53:14.981Z,101349.22
2023-05-09T00:55:42.401Z,101350.91
2023-05-09T00:58:10.069Z,101357.31
2023-05-09T01:00:37.348Z,101344.78
2023-05-09T01:03:05.037Z,101349.22
2023-05-09T01:05:56.678Z,101334.72
2023-05-09T01:08:57.549Z,101330.16
2023-05-09T01:11:45.786Z,101330.16
2023-05-09T01:14:38.429Z,101329.31
2023-05-09T01:17:13.739Z,101327.47
2023-05-09T01:20:02.604Z,101324.78
2023-05-09T01:22:36.346Z,101316.69
2023-05-09T01:25:13.397Z,101317.69
2023-05-09T01:27:53.700Z,101317.69
2023-05-09T01:30:21.228Z,101323.94
2023-05-09T01:32:52.110Z,101319.53
2023-05-09T01:35:24.632Z,101319.53
2023-05-09T01:37:54.726Z,101322.22
2023-05-09T01:40:25.996Z,101321.38
2023-05-09T01:43:07.164Z,101317.69
2023-05-09T01:45:36.917Z,101309.69
2023-05-09T01:48:06.716Z,101315.09
2023-05-09T01:50:35.871Z,101323.19
2023-05-09T01:53:05.844Z,101320.50
2023-05-09T01:55:36.632Z,101315.09
2023-05-09T01:58:05.812Z,101318.81
2023-05-09T02:00:34.906Z,101324.06
2023-05-09T02:03:04.294Z,101308.84
2023-05-09T02:05:33.584Z,101310.72
2023-05-09T02:08:01.119Z,101317.81
2023-05-09T02:10:29.151Z,101318.81
2023-05-09T02:12:57.510Z,101313.41
2023-05-09T02:15:25.955Z,101318.81
2023-05-09T02:17:53.490Z,101322.34
2023-05-09T02:20:21.000Z,101327.75
2023-05-09T02:22:48.651Z,101324.19
2023-05-09T02:25:16.277Z,101328.59
2023-05-09T02:27:46.177Z,101333.16
2023-05-09T02:30:25.276Z,101335.00
2023-05-09T02:32:58.680Z,101324.19
2023-05-09T02:35:28.173Z,101319.81
2023-05-09T02:37:57.407Z,101312.41
2023-05-09T02:40:26.268Z,101310.72
2023-05-09T02:42:54.523Z,101323.19
2023-05-09T02:45:22.258Z,101326.06
2023-05-09T02:47:49.703Z,101322.50
2023-05-09T02:50:17.001Z,101326.91
2023-05-09T02:52:44.544Z,101326.91
2023-05-09T02:55:11.838Z,101319.66
2023-05-09T02:57:41.193Z,101310.84
2023-05-09T03:00:09.686Z,101309.84
2023-05-09T03:02:37.506Z,101309.84
2023-05-09T03:05:07.404Z,101312.56
2023-05-09T03:07:36.239Z,101310.84
2023-05-09T03:10:04.221Z,101300.91
2023-05-09T03:12:32.136Z,101303.63
2023-05-09T03:14:59.402Z,101295.66
2023-05-09T03:17:26.731Z,101301.75
2023-05-09T03:19:54.004Z,101305.47
2023-05-09T03:22:21.286Z,101311.72
2023-05-09T03:24:56.009Z,101308.00
2023-05-09T03:27:23.488Z,101308.00
2023-05-09T03:29:51.664Z,101289.13
2023-05-09T03:32:20.300Z,101298.91
2023-05-09T03:34:47.814Z,101290.81
2023-05-09T03:37:15.174Z,101297.09
2023-05-09T03:39:43.735Z,101292.66
2023-05-09T03:42:11.141Z,101305.31
2023-05-09T03:44:40.114Z,101297.22
2023-05-09T03:47:07.514Z,101299.91
2023-05-09T03:49:38.854Z,101299.91
2023-05-09T03:52:07.283Z,101298.22
2023-05-09T03:54:34.817Z,101295.50
2023-05-09T03:57:03.512Z,101297.38
2023-05-09T03:59:30.942Z,101304.63
2023-05-09T04:01:58.717Z,101306.47
2023-05-09T04:04:27.520Z,101304.75
2023-05-09T04:06:55.485Z,101313.69
2023-05-09T04:09:23.579Z,101321.66
2023-05-09T04:11:51.445Z,101325.34
2023-05-09T04:14:18.727Z,101321.78
2023-05-09T04:16:47.126Z,101325.47
2023-05-09T04:19:15.010Z,101319.06
2023-05-09T04:21:42.614Z,101316.53
2023-05-09T04:24:09.939Z,101315.53
2023-05-09T04:26:42.582Z,101317.38
2023-05-09T04:29:13.647Z,101321.94
2023-05-09T04:31:42.074Z,101327.31
2023-05-09T04:34:12.194Z,101321.94
2023-05-09T04:36:40.064Z,101313.00
2023-05-09T04:39:08.409Z,101313.00
2023-05-09T04:41:37.059Z,101321.09
2023-05-09T04:44:05.158Z,101318.38
2023-05-09T04:46:32.488Z,101320.22
2023-05-09T04:48:59.846Z,101321.94
2023-05-09T04:51:27.304Z,101315.69
2023-05-09T04:53:54.602Z,101323.78
2023-05-09T04:56:26.675Z,101319.38
2023-05-09T04:58:53.973Z,101331.03
2023-05-09T05:01:21.366Z,101331.88
2023-05-09T05:03:49.904Z,101335.56
2023-05-09T05:06:17.203Z,101330.19
2023-05-09T05:08:45.019Z,101336.44
2023-05-09T05:11:13.695Z,101339.13
2023-05-09T05:13:40.973Z,101332.88
2023-05-09T05:16:08.492Z,101335.56
2023-05-09T05:18:36.395Z,101328.34
2023-05-09T05:21:03.785Z,101328.44
2023-05-09T05:23:31.085Z,101335.56
2023-05-09T05:25:58.348Z,101336.56
2023-05-09T05:28:26.568Z,101353.63
2023-05-09T05:30:53.924Z,101350.03
2023-05-09T05:33:21.220Z,101355.44
2023-05-09T05:35:48.780Z,101353.75
2023-05-09T05:38:16.054Z,101350.03
2023-05-09T05:40:47.944Z,101350.03
2023-05-09T05:43:15.332Z,101355.44
2023-05-09T05:45:42.972Z,101352.75
2023-05-09T05:48:15.815Z,101350.91
2023-05-09T05:50:43.405Z,101344.66
2023-05-09T05:53:12.727Z,101344.66
2023-05-09T05:55:40.701Z,101341.94
2023-05-09T05:58:08.027Z,101353.63
2023-05-09T06:00:36.291Z,101357.16
2023-05-09T06:03:06.438Z,101350.03
2023-05-09T06:05:48.474Z,101343.78
2023-05-09T06:08:16.654Z,101342.94
2023-05-09T06:10:43.938Z,101334.84
2023-05-09T06:13:11.667Z,101339.25
2023-05-09T06:15:42.518Z,101338.41
2023-05-09T06:18:10.953Z,101341.09
2023-05-09T06:20:38.268Z,101336.56
2023-05-09T06:23:05.451Z,101334.72
2023-05-09T06:25:32.730Z,101334.72
2023-05-09T06:28:00.003Z,101330.19
2023-05-09T06:30:27.356Z,101345.53
2023-05-09T06:32:55.545Z,101348.22
2023-05-09T06:35:22.880Z,101335.56
2023-05-09T06:37:50.450Z,101332.88
2023-05-09T06:40:17.758Z,101327.91
2023-05-09T06:42:45.592Z,101340.81
2023-05-09T06:45:13.334Z,101342.09
2023-05-09T06:47:41.097Z,101342.53
2023-05-09T06:50:08.773Z,101339.09
2023-05-09T06:52:36.099Z,101341.94
2023-05-09T06:55:04.369Z,101335.97
2023-05-09T06:57:31.774Z,101337.94
2023-05-09T06:59:59.023Z,101339.78
2023-05-09T07:02:26.360Z,101345.47
2023-05-09T07:04:53.774Z,101334.66
2023-05-09T07:07:21.070Z,101340.22
2023-05-09T07:09:50.805Z,101332.13
2023-05-09T07:12:20.633Z,101329.44
2023-05-09T07:14:47.912Z,101326.72
2023-05-09T07:17:22.844Z,101324.75
2023-05-09T07:19:51.808Z,101324.03
2023-05-09T07:22:19.370Z,101322.19
2023-05-09T07:24:46.862Z,101317.06
2023-05-09T07:27:14.170Z,101317.06
2023-05-09T07:29:41.448Z,101311.53
2023-05-09T07:32:08.843Z,101315.78
2023-05-09T07:34:36.634Z,101319.22
2023-05-09T07:37:03.870Z,101315.41
2023-05-09T07:39:31.171Z,101318.78
2023-05-09T07:41:58.504Z,101306.88
2023-05-09T07:44:25.795Z,101300.47
2023-05-09T07:46:55.501Z,101302.06
2023-05-09T07:49:22.747Z,101299.22
2023-05-09T07:51:50.099Z,101298.22
2023-05-09T07:54:17.415Z,101299.91
2023-05-09T07:56:44.704Z,101297.19
2023-05-09T07:59:12.339Z,101289.09
2023-05-09T08:01:39.630Z,101294.50
2023-05-09T08:04:09.153Z,101290.84
2023-05-09T08:06:36.826Z,101291.53
2023-05-09T08:09:04.836Z,101301.19
2023-05-09T08:11:36.120Z,101309.03
2023-05-09T08:14:03.541Z,101311.72
2023-05-09T08:16:31.104Z,101311.56
2023-05-09T08:18:58.461Z,101307.75
2023-05-09T08:21:26.599Z,101304.16
2023-05-09T08:23:53.929Z,101299.66
2023-05-09T08:26:22.729Z,101297.66
2023-05-09T08:28:50.067Z,101298.38
2023-05-09T08:31:17.398Z,101294.66
2023-05-09T08:33:44.647Z,101298.22
2023-05-09T08:36:11.984Z,101302.59
2023-05-09T08:38:40.737Z,101299.06
2023-05-09T08:41:08.009Z,101303.47
2023-05-09T08:43:35.913Z,101301.59
2023-05-09T08:46:09.634Z,101299.78
2023-05-09T08:48:40.168Z,101291.53
2023-05-09T08:51:07.778Z,101291.53
2023-05-09T08:53:35.438Z,101289.69
2023-05-09T08:56:06.131Z,101293.22
2023-05-09T08:58:34.305Z,101288.56
2023-05-09T09:01:04.656Z,101291.25
2023-05-09T09:03:32.922Z,101283.84
2023-05-09T09:06:01.108Z,101283.84
2023-05-09T09:08:29.816Z,101280.16
2023-05-09T09:10:57.411Z,101282.84
2023-05-09T09:13:25.829Z,101278.19
2023-05-09T09:15:54.158Z,101280.03
2023-05-09T09:18:24.056Z,101271.94
2023-05-09T09:20:58.005Z,101271.09
2023-05-09T09:23:26.742Z,101263.94
2023-05-09T09:26:01.840Z,101263.94
2023-05-09T09:28:29.686Z,101263.09
2023-05-09T09:30:57.122Z,101266.81
2023-05-09T09:33:26.317Z,101263.25
2023-05-09T09:35:55.197Z,101255.16
2023-05-09T09:38:24.134Z,101247.91
2023-05-09T09:40:55.751Z,101250.78
2023-05-09T09:43:30.925Z,101248.91
2023-05-09T09:46:02.618Z,101244.38
2023-05-09T09:48:36.413Z,101246.91
2023-05-09T09:51:12.660Z,101248.75
2023-05-09T09:53:43.682Z,101246.91
2023-05-09T09:56:11.324Z,101249.63
2023-05-09T09:58:38.933Z,101249.63
2023-05-09T10:01:10.023Z,101242.69
2023-05-09T10:03:37.449Z,101246.34
2023-05-09T10:06:05.567Z,101248.06
2023-05-09T10:08:32.793Z,101243.66
2023-05-09T10:11:00.363Z,101241.94
2023-05-09T10:13:28.750Z,101249.19
2023-05-09T10:15:58.265Z,101243.81
2023-05-09T10:18:29.315Z,101242.09
2023-05-09T10:21:03.433Z,101242.09
2023-05-09T10:23:32.800Z,101243.09
2023-05-09T10:26:17.303Z,101243.09
2023-05-09T10:28:48.015Z,101237.00
2023-05-09T10:31:22.005Z,101237.00
2023-05-09T10:33:50.717Z,101230.75
2023-05-09T10:36:23.152Z,101229.91
2023-05-09T10:38:53.835Z,101223.66
2023-05-09T10:41:22.168Z,101228.19
2023-05-09T10:43:49.772Z,101225.34
2023-05-09T10:46:17.726Z,101225.34
2023-05-09T10:48:45.490Z,101217.41
2023-05-09T10:51:13.302Z,101221.06
2023-05-09T10:53:48.785Z,101218.38
2023-05-09T10:56:32.723Z,101212.97
2023-05-09T10:59:00.829Z,101205.72
2023-05-09T11:01:37.568Z,101198.63
2023-05-09T11:04:14.504Z,101195.94
2023-05-09T11:06:42.107Z,101195.09
2023-05-09T11:09:38.971Z,101190.53
2023-05-09T11:12:10.248Z,101176.19
2023-05-09T11:14:37.953Z,101177.06
2023-05-09T11:17:11.372Z,101182.59
2023-05-09T11:19:47.622Z,101179.91
2023-05-09T11:22:16.382Z,101173.66
2023-05-09T11:24:59.883Z,101169.13
2023-05-09T11:27:28.628Z,101162.88
2023-05-09T11:29:58.611Z,101162.03
2023-05-09T11:32:34.321Z,101161.88
2023-05-09T11:35:15.990Z,101153.94
2023-05-09T11:38:00.286Z,101153.03
2023-05-09T11:40:29.119Z,101150.34
2023-05-09T11:42:58.870Z,101140.56
2023-05-09T11:45:32.367Z,101132.47
2023-05-09T11:48:01.081Z,101128.91
2023-05-09T11:50:28.712Z,101113.56
2023-05-09T11:52:56.101Z,101116.28
2023-05-09T11:55:25.407Z,101114.59
2023-05-09T11:57:54.128Z,101110.88
2023-05-09T12:00:24.072Z,101109.19
2023-05-09T12:02:52.666Z,101105.63
2023-05-09T12:05:21.401Z,101103.78
2023-05-09T12:07:49.295Z,101106.50
2023-05-09T12:10:20.524Z,101093.00
2023-05-09T12:12:50.050Z,101092.16
2023-05-09T12:15:18.132Z,101086.75
2023-05-09T12:17:48.174Z,101087.59
2023-05-09T12:20:17.014Z,101077.81
2023-05-09T12:22:44.356Z,101076.81
2023-05-09T12:25:12.275Z,101067.88
2023-05-09T12:27:41.416Z,101066.00
2023-05-09T12:30:14.070Z,101064.31
2023-05-09T12:32:42.879Z,101064.31
2023-05-09T12:35:11.214Z,101069.72
2023-05-09T12:37:39.245Z,101056.22
2023-05-09T12:40:15.480Z,101055.38
2023-05-09T12:42:44.946Z,101048.97
2023-05-09T12:45:13.195Z,101041.88
2023-05-09T12:47:41.986Z,101027.38
2023-05-09T12:50:12.411Z,101030.09
2023-05-09T12:52:58.496Z,101029.09
2023-05-09T12:55:30.236Z,101024.53
2023-05-09T12:58:02.274Z,101029.81
2023-05-09T13:00:42.277Z,101013.59
2023-05-09T13:03:25.896Z,101012.44
2023-05-09T13:06:00.641Z,101010.59
2023-05-09T13:08:29.497Z,101004.34
2023-05-09T13:11:07.918Z,101004.22
2023-05-09T13:13:42.754Z,100996.97
2023-05-09T13:16:15.757Z,100987.16
2023-05-09T13:18:44.705Z,100990.41
2023-05-09T13:21:11.996Z,100985.00
2023-05-09T13:23:39.290Z,100980.44
2023-05-09T13:26:06.525Z,100975.06
2023-05-09T13:28:33.844Z,100975.22
2023-05-09T13:31:01.426Z,100982.31
2023-05-09T13:33:28.688Z,100974.38
2023-05-09T13:35:55.951Z,100977.06
2023-05-09T13:38:23.333Z,100968.13
2023-05-09T13:40:50.736Z,100968.13
2023-05-09T13:43:20.839Z,100956.63
2023-05-09T13:45:48.202Z,100954.75
2023-05-09T13:48:15.649Z,100951.22
2023-05-09T13:50:42.937Z,100960.16
2023-05-09T13:53:10.120Z,100944.84
2023-05-09T13:55:37.367Z,100946.66
2023-05-09T13:58:04.592Z,100946.66
2023-05-09T14:00:31.876Z,100943.97
2023-05-09T14:02:59.176Z,100934.19
2023-05-09T14:05:26.886Z,100935.75
2023-05-09T14:07:55.250Z,100932.19
2023-05-09T14:10:22.841Z,100924.94
2023-05-09T14:12:50.081Z,100921.25
2023-05-09T14:15:17.511Z,100916.69
2023-05-09T14:17:45.034Z,100911.28
2023-05-09T14:20:13.032Z,100904.88
2023-05-09T14:22:40.398Z,100910.28
2023-05-09T14:25:08.047Z,100912.00
2023-05-09T14:27:38.357Z,100908.28
2023-05-09T14:30:06.562Z,100904.59
2023-05-09T14:32:33.882Z,100906.28
2023-05-09T14:35:01.271Z,100909.84
2023-05-09T14:37:29.497Z,100909.84
2023-05-09T14:39:56.994Z,100903.59
2023-05-09T14:42:24.233Z,100907.16
2023-05-09T14:44:51.534Z,100906.28
2023-05-09T14:47:18.845Z,100905.31
2023-05-09T14:49:46.283Z,100908.00
2023-05-09T14:52:13.834Z,100902.59
2023-05-09T14:54:41.974Z,100910.69
2023-05-09T14:57:09.253Z,100902.59
2023-05-09T14:59:37.186Z,100903.44
2023-05-09T15:02:04.622Z,100903.44
2023-05-09T15:04:32.042Z,100899.06
2023-05-09T15:06:59.821Z,100905.31
2023-05-09T15:09:27.655Z,100904.28
2023-05-09T15:11:55.257Z,100908.00
2023-05-09T15:14:22.601Z,100905.13
2023-05-09T15:16:52.259Z,100900.59
2023-05-09T15:19:19.720Z,100904.84
2023-05-09T15:21:47.033Z,100896.56
2023-05-09T15:24:14.289Z,100896.56
2023-05-09T15:26:41.615Z,100891.19
2023-05-09T15:29:08.892Z,100878.41
2023-05-09T15:31:36.892Z,100880.09
2023-05-09T15:34:04.633Z,100883.78
2023-05-09T15:36:33.826Z,100865.56
2023-05-09T15:39:01.272Z,100862.03
2023-05-09T15:41:28.783Z,100864.56
2023-05-09T15:43:56.051Z,100868.16
2023-05-09T15:46:23.896Z,100873.38
2023-05-09T15:48:52.130Z,100865.09
2023-05-09T15:51:20.566Z,100863.28
2023-05-09T15:53:48.937Z,100860.59
2023-05-09T15:56:16.385Z,100854.47
2023-05-09T15:58:43.571Z,100848.06
2023-05-09T16:01:13.113Z,100853.63
2023-05-09T16:03:41.660Z,100847.41
2023-05-09T16:06:09.049Z,100851.94
2023-05-09T16:08:36.329Z,100853.94
2023-05-09T16:11:05.173Z,100846.00
2023-05-09T16:13:34.341Z,100850.56
2023-05-09T16:16:03.438Z,100851.41
2023-05-09T16:18:30.695Z,100854.22
2023-05-09T16:20:57.921Z,100852.25
2023-05-09T16:23:26.043Z,100846.00
2023-05-09T16:25:53.329Z,100847.69
2023-05-09T16:28:23.423Z,100847.69
2023-05-09T16:30:53.981Z,100841.16
2023-05-09T16:33:21.410Z,100843.69
2023-05-09T16:35:48.790Z,100840.13
2023-05-09T16:38:15.986Z,100845.53
2023-05-09T16:40:43.286Z,100839.97
2023-05-09T16:43:10.561Z,100846.22
2023-05-09T16:45:37.875Z,100857.00
2023-05-09T16:48:05.942Z,100845.38
2023-05-09T16:50:33.773Z,100842.66
2023-05-09T16:53:02.335Z,100842.84
2023-05-09T16:55:29.564Z,100842.66
2023-05-09T16:57:56.708Z,100848.06
2023-05-09T17:00:24.025Z,100850.94
2023-05-09T17:02:51.389Z,100851.06
2023-05-09T17:05:19.433Z,100849.53
2023-05-09T17:07:47.062Z,100851.53
2023-05-09T17:10:14.761Z,100841.91
2023-05-09T17:12:42.284Z,100840.19
2023-05-09T17:15:11.783Z,100852.00
2023-05-09T17:17:39.300Z,100840.53
2023-05-09T17:20:09.419Z,100837.13
2023-05-09T17:22:37.226Z,100846.22
2023-05-09T17:25:05.633Z,100839.97
2023-05-09T17:27:32.979Z,100833.75
2023-05-09T17:30:00.329Z,100839.81
2023-05-09T17:32:27.620Z,100842.38
2023-05-09T17:34:54.936Z,100834.28
2023-05-09T17:37:22.282Z,100831.41
2023-05-09T17:39:49.639Z,100838.50
2023-05-09T17:42:17.216Z,100834.97
2023-05-09T17:44:44.662Z,100839.34
2023-05-09T17:47:14.057Z,100840.19
2023-05-09T17:49:41.489Z,100844.63
2023-05-09T17:52:08.822Z,100833.81
2023-05-09T17:54:36.708Z,100842.75
2023-05-09T17:57:04.085Z,100846.31
2023-05-09T17:59:31.404Z,100848.00
2023-05-09T18:01:58.897Z,100841.75
2023-05-09T18:04:27.314Z,100840.91
2023-05-09T18:06:54.614Z,100837.19
2023-05-09T18:09:22.749Z,100838.03
2023-05-09T18:11:50.110Z,100844.28
2023-05-09T18:14:17.706Z,100839.06
2023-05-09T18:16:45.541Z,100843.59
2023-05-09T18:19:12.896Z,100843.59
2023-05-09T18:21:40.583Z,100846.31
2023-05-09T18:24:09.281Z,100844.44
2023-05-09T18:26:36.629Z,100846.31
2023-05-09T18:29:04.013Z,100845.28
2023-05-09T18:31:31.758Z,100845.59
2023-05-09T18:33:59.189Z,100840.53
2023-05-09T18:36:29.994Z,100843.53
2023-05-09T18:38:57.376Z,100838.13
2023-05-09T18:41:25.814Z,100840.66
2023-05-09T18:43:53.270Z,100844.22
2023-05-09T18:46:21.380Z,100845.09
2023-05-09T18:48:51.010Z,100843.22
2023-05-09T18:51:19.222Z,100837.81
2023-05-09T18:53:47.505Z,100846.78
2023-05-09T18:56:14.881Z,100849.47
2023-05-09T18:58:42.163Z,100854.69
2023-05-09T19:01:11.548Z,100864.50
2023-05-09T19:03:46.007Z,100855.53
2023-05-09T19:06:14.787Z,100856.38
2023-05-09T19:08:43.468Z,100850.16
2023-05-09T19:11:11.759Z,100853.56
2023-05-09T19:13:40.796Z,100845.47
2023-05-09T19:16:08.965Z,100857.94
2023-05-09T19:18:36.307Z,100859.81
2023-05-09T19:21:03.819Z,100857.09
2023-05-09T19:23:31.166Z,100861.66
2023-05-09T19:25:58.551Z,100866.03
2023-05-09T19:28:25.876Z,100863.34
2023-05-09T19:30:53.193Z,100860.47
2023-05-09T19:33:20.513Z,100854.22
2023-05-09T19:35:47.936Z,100856.09
2023-05-09T19:38:15.424Z,100857.78
2023-05-09T19:40:42.709Z,100853.25
2023-05-09T19:43:10.097Z,100854.09
2023-05-09T19:45:37.380Z,100853.09
2023-05-09T19:48:04.726Z,100846.00
2023-05-09T19:50:32.150Z,100846.84
2023-05-09T19:52:59.430Z,100841.44
2023-05-09T19:55:26.937Z,100847.69
2023-05-09T19:57:54.197Z,100846.00
2023-05-09T20:00:21.671Z,100846.00
2023-05-09T20:02:49.894Z,100851.22
2023-05-09T20:05:17.315Z,100851.22
2023-05-09T20:07:44.600Z,100842.28
2023-05-09T20:10:15.643Z,100842.13
2023-05-09T20:12:43.624Z,100842.97
2023-05-09T20:15:12.145Z,100835.88
2023-05-09T20:17:39.443Z,100836.72
2023-05-09T20:20:07.309Z,100833.19
2023-05-09T20:22:34.548Z,100848.38
2023-05-09T20:25:01.924Z,100834.03
2023-05-09T20:27:29.202Z,100831.50
2023-05-09T20:29:56.715Z,100841.28
2023-05-09T20:32:24.458Z,100833.19
2023-05-09T20:34:51.793Z,100834.88
2023-05-09T20:37:21.918Z,100827.78
2023-05-09T20:39:49.237Z,100825.25
2023-05-09T20:42:16.490Z,100819.84
2023-05-09T20:44:44.289Z,100815.97
2023-05-09T20:47:11.550Z,100809.91
2023-05-09T20:49:38.835Z,100806.34
2023-05-09T20:52:06.259Z,100808.88
2023-05-09T20:54:33.577Z,100803.66
2023-05-09T20:57:00.887Z,100809.91
2023-05-09T20:59:28.528Z,100805.34
2023-05-09T21:01:56.078Z,100803.50
2023-05-09T21:04:23.465Z,100800.78
2023-05-09T21:06:50.760Z,100801.81
2023-05-09T21:09:18.453Z,100792.03
2023-05-09T21:11:46.115Z,100785.59
2023-05-09T21:14:13.421Z,100790.84
2023-05-09T21:16:40.722Z,100780.88
2023-05-09T21:19:08.857Z,100780.03
2023-05-09T21:21:36.152Z,100781.75
2023-05-09T21:24:08.846Z,100788.00
2023-05-09T21:26:36.429Z,100784.28
2023-05-09T21:29:03.700Z,100780.75
2023-05-09T21:31:31.350Z,100775.34
2023-05-09T21:33:59.372Z,100773.50
2023-05-09T21:36:26.594Z,100766.41
2023-05-09T21:38:53.825Z,100768.25
2023-05-09T21:41:21.953Z,100767.38
2023-05-09T21:43:49.197Z,100761.00
2023-05-09T21:46:16.472Z,100761.00
2023-05-09T21:48:43.731Z,100757.31
2023-05-09T21:51:11.477Z,100760.00
2023-05-09T21:53:38.716Z,100752.75
2023-05-09T21:56:06.167Z,100744.81
2023-05-09T21:58:33.528Z,100747.50
2023-05-09T22:01:00.842Z,100753.75
2023-05-09T22:03:28.281Z,100751.91
2023-05-09T22:05:55.550Z,100749.19
2023-05-09T22:08:23.252Z,100745.66
2023-05-09T22:10:51.025Z,100745.66
2023-05-09T22:13:18.448Z,100749.38
2023-05-09T22:15:45.769Z,100743.97
2023-05-09T22:18:13.184Z,100749.38
2023-05-09T22:20:40.483Z,100745.66
2023-05-09T22:23:07.704Z,100729.47
2023-05-09T22:25:36.232Z,100732.31
2023-05-09T22:28:03.582Z,100732.16
2023-05-09T22:30:31.234Z,100726.91
2023-05-09T22:33:00.063Z,100724.22
2023-05-09T22:35:27.563Z,100716.97
2023-05-09T22:37:54.795Z,100725.91
2023-05-09T22:40:22.114Z,100716.97
2023-05-09T22:42:49.334Z,100725.09
2023-05-09T22:45:16.548Z,100722.38
2023-05-09T22:47:44.508Z,100713.41
2023-05-09T22:50:12.501Z,100712.72
2023-05-09T22:52:39.855Z,100714.41
2023-05-09T22:55:07.573Z,100710.03
2023-05-09T22:57:34.834Z,100709.19
2023-05-09T23:00:02.082Z,100703.78
2023-05-09T23:02:29.468Z,100697.56
2023-05-09T23:04:56.801Z,100700.25
2023-05-09T23:07:24.091Z,100695.00
2023-05-09T23:09:51.322Z,100699.41
2023-05-09T23:12:18.817Z,100697.69
2023-05-09T23:14:46.699Z,100699.53
2023-05-09T23:17:13.960Z,100697.84
2023-05-09T23:19:41.270Z,100703.09
2023-05-09T23:22:08.605Z,100690.59
2023-05-09T23:24:36.067Z,100693.31
2023-05-09T23:27:03.374Z,100679.81
2023-05-09T23:29:30.655Z,100678.97
2023-05-09T23:31:57.850Z,100673.75
2023-05-09T23:34:25.249Z,100679.13
2023-05-09T23:36:52.490Z,100677.28
2023-05-09T23:39:22.811Z,100665.78
2023-05-09T23:41:50.044Z,100674.72
2023-05-09T23:44:17.288Z,100666.78
2023-05-09T23:46:44.765Z,100667.63
2023-05-09T23:49:13.327Z,100666.78
2023-05-09T23:51:40.996Z,100662.25
2023-05-09T23:54:08.426Z,100655.16
2023-05-09T23:56:35.685Z,100658.00
2023-05-09T23:59:02.924Z,100648.91
